CST,Max TemperatureF,Mean TemperatureF,Min TemperatureF,Max Dew PointF,MeanDew PointF,Min DewpointF,Max Humidity, Mean Humidity, Min Humidity, Max Sea Level PressureIn, Mean Sea Level PressureIn, Min Sea Level PressureIn, Max VisibilityMiles, Mean VisibilityMiles, Min VisibilityMiles, Max Wind SpeedMPH, Mean Wind SpeedMPH, Max Gust SpeedMPH,PrecipitationIn, CloudCover, Events, WindDirDegrees
2012-12-1,68,51,34,54,46,31,89,73,60,30.11,29.99,29.88,10,8,4,16,4,24,0.00,3,,166
2012-12-2,68,60,52,57,54,49,90,75,64,30.04,29.97,29.87,10,7,0,18,6,24,0.00,6,Fog,197
2012-12-3,76,64,53,63,59,48,90,72,56,30.01,29.88,29.76,10,7,0,22,9,34,0.05,6,Fog-Rain,175
2012-12-4,65,55,45,48,36,26,68,51,24,30.31,30.13,29.95,10,10,10,13,6,18,0.00,2,Rain,302
2012-12-5,50,42,34,33,29,23,80,60,38,30.44,30.33,30.18,10,10,10,9,6,,0.00,0,,68
2012-12-6,56,48,39,45,39,33,81,66,48,30.17,29.99,29.93,10,10,7,9,5,,0.00,3,Rain,168
2012-12-7,50,48,45,46,45,43,90,86,82,29.95,29.91,29.86,7,4,1,7,2,,0.14,8,Rain,18
2012-12-8,47,44,41,43,39,36,90,81,69,30.06,29.99,29.83,10,8,2,10,5,,0.04,8,Rain,4
2012-12-9,49,43,37,45,40,31,93,83,75,30.04,29.85,29.76,10,7,1,14,8,25,0.05,8,Rain,156
2012-12-10,36,34,32,30,27,26,86,78,74,30.00,29.89,29.81,10,9,5,15,10,23,0.00,8,,260
2012-12-11,42,33,24,28,24,21,87,70,47,30.17,30.05,30.00,10,10,10,15,5,20,0.00,1,,186
2012-12-12,53,42,31,32,27,19,76,58,26,30.29,30.24,30.17,10,10,10,13,7,18,0.00,0,,166
2012-12-13,55,46,36,33,28,22,71,54,27,30.27,30.19,30.10,10,10,10,17,8,23,0.00,1,,167
2012-12-14,57,44,32,40,32,26,82,62,36,30.19,30.11,29.98,10,10,10,10,4,,0.00,0,Rain,150
2012-12-15,56,51,46,52,47,38,88,80,62,29.98,29.70,29.55,10,8,2,18,9,29,0.29,8,Rain,159
2012-12-16,57,50,43,48,41,36,86,77,70,29.76,29.69,29.61,10,8,3,12,8,18,0.00,8,Rain,253
2012-12-17,43,41,39,37,36,32,86,80,75,29.76,29.73,29.67,10,6,2,8,3,,0.00,8,,291
2012-12-18,47,41,35,38,34,31,85,78,68,29.87,29.70,29.55,10,7,3,17,6,26,0.00,7,,202
2012-12-19,39,36,33,38,33,30,97,88,81,30.05,29.94,29.65,10,6,2,20,6,25,0.37,8,Rain-Thunderstorm,62
2012-12-20,50,37,24,48,36,21,100,93,85,29.72,29.34,29.05,10,6,1,33,16,45,0.26,8,Rain-Snow,281
2012-12-21,24,20,16,20,13,10,85,75,65,30.24,30.07,29.74,10,10,7,23,15,36,0.00,4,,285
2012-12-22,32,20,9,23,15,6,95,79,54,30.25,30.12,29.93,10,10,7,9,2,,0.00,1,,134
2012-12-23,32,23,14,28,21,13,97,87,63,30.02,29.96,29.91,10,7,4,8,1,,0.00,2,,3
2012-12-24,30,27,24,27,24,21,96,90,86,30.13,29.95,29.85,10,6,4,14,5,20,0.00,6,Snow,309
2012-12-25,28,23,18,23,19,14,90,82,76,30.32,30.23,30.13,10,10,5,13,7,18,0.00,5,,339
2012-12-26,31,28,25,24,23,21,86,80,73,30.16,30.08,30.00,10,10,10,17,11,24,0.00,7,,336
2012-12-27,30,26,23,26,22,19,92,81,75,30.20,30.15,30.11,10,10,10,8,4,,0.00,8,,351
2012-12-28,32,30,27,29,26,22,94,86,78,30.11,29.99,29.90,10,8,4,9,4,,0.00,8,,120
2012-12-29,29,21,13,28,19,10,94,83,76,30.29,30.07,29.88,10,7,3,17,9,26,0.00,7,Rain-Snow,276
2012-12-30,35,24,13,26,22,11,90,72,58,30.35,30.24,30.10,10,9,4,14,5,23,0.00,1,,181
2012-12-31,36,28,20,26,21,14,81,72,58,30.16,30.09,30.05,10,10,3,12,9,24,0.00,5,Rain-Snow,257